Time;durP1;ratioP1;P1;durP2;ratioP2;P2;SDS_P1;SDS_P2;PMS_P1;PMS_P2;Temp;Humidity;BMP_temperature;BMP_pressure;BME280_temperature;BME280_humidity;BME280_pressure;Samples;Min_cycle;Max_cycle;Signal;HPM_P1;HPM_P2
2021/10/04 00:00:12;;;;;;;1.80;1.70;;;19.60;99.90;;;;;;5145874;27;20464;-41
2021/10/04 00:02:47;;;;;;;1.63;1.47;;;19.50;99.90;;;;;;5146127;27;20444;-42
2021/10/04 00:05:20;;;;;;;2.57;2.37;;;19.50;99.90;;;;;;5145883;27;20519;-42
2021/10/04 00:07:52;;;;;;;2.20;2.00;;;19.50;99.90;;;;;;5146605;27;20455;-41
2021/10/04 00:10:23;;;;;;;2.10;2.00;;;19.40;99.90;;;;;;5146420;27;20453;-41
2021/10/04 00:12:55;;;;;;;1.93;1.70;;;19.40;99.90;;;;;;5143234;27;20443;-41
2021/10/04 00:15:29;;;;;;;1.60;1.50;;;19.40;99.90;;;;;;5145231;27;20811;-41
2021/10/04 00:18:03;;;;;;;1.67;1.57;;;19.30;99.90;;;;;;5147050;27;20448;-41
2021/10/04 00:20:34;;;;;;;1.80;1.70;;;19.30;99.90;;;;;;5146543;27;20437;-42
2021/10/04 00:23:06;;;;;;;2.10;2.00;;;19.20;99.90;;;;;;5146984;27;20764;-42
2021/10/04 00:25:37;;;;;;;3.60;2.00;;;19.10;99.90;;;;;;5146674;27;20415;-41
2021/10/04 00:28:08;;;;;;;1.60;1.50;;;19.00;99.90;;;;;;5145695;27;20476;-41
2021/10/04 00:30:40;;;;;;;2.20;1.70;;;18.90;99.90;;;;;;5125326;28;20449;-41
2021/10/04 00:33:12;;;;;;;1.80;1.70;;;18.90;99.90;;;;;;5125166;28;20441;-42
2021/10/04 00:35:44;;;;;;;1.97;1.83;;;18.90;99.90;;;;;;5128353;27;20459;-42
2021/10/04 00:38:14;;;;;;;2.57;2.37;;;18.90;99.90;;;;;;5146478;27;20513;-41
2021/10/04 00:40:45;;;;;;;2.30;2.10;;;18.80;99.90;;;;;;5145852;27;20449;-41
2021/10/04 00:43:17;;;;;;;2.00;1.90;;;18.70;99.90;;;;;;5145980;27;20697;-41
2021/10/04 00:45:47;;;;;;;2.17;2.07;;;18.60;99.90;;;;;;5146032;27;20464;-41
2021/10/04 00:48:20;;;;;;;2.03;1.93;;;18.40;99.90;;;;;;5144734;27;20484;-41
2021/10/04 00:50:53;;;;;;;1.90;1.80;;;18.30;99.90;;;;;;5145085;27;20441;-40
2021/10/04 00:53:24;;;;;;;3.47;2.50;;;18.30;99.90;;;;;;5145366;27;20512;-41
2021/10/04 00:55:56;;;;;;;2.50;2.30;;;18.20;99.90;;;;;;5145880;27;20476;-41
2021/10/04 00:58:27;;;;;;;2.30;2.10;;;18.10;99.90;;;;;;5145946;27;20451;-41
2021/10/04 01:00:59;;;;;;;2.20;2.10;;;18.10;99.90;;;;;;5145061;27;20467;-41
2021/10/04 01:03:32;;;;;;;2.57;2.40;;;18.10;99.90;;;;;;5142638;27;20532;-43
2021/10/04 01:06:03;;;;;;;2.50;2.27;;;18.00;99.90;;;;;;5127935;27;20647;-40
2021/10/04 01:08:35;;;;;;;2.87;2.37;;;18.00;99.90;;;;;;5125089;28;20477;-41
2021/10/04 01:11:06;;;;;;;2.60;2.40;;;17.90;99.90;;;;;;5131491;27;20459;-40
2021/10/04 01:13:38;;;;;;;3.97;3.27;;;17.90;99.90;;;;;;5145695;27;20480;-41
2021/10/04 01:16:09;;;;;;;3.17;2.90;;;17.90;99.90;;;;;;5144772;27;20461;-41
2021/10/04 01:18:42;;;;;;;2.63;2.43;;;17.80;99.90;;;;;;5142071;27;20443;-41
2021/10/04 01:21:14;;;;;;;4.77;3.40;;;17.70;99.90;;;;;;5145259;27;20448;-41
2021/10/04 01:23:45;;;;;;;4.80;4.40;;;17.60;99.90;;;;;;5145651;27;20452;-41
2021/10/04 01:26:16;;;;;;;4.90;4.50;;;17.50;99.90;;;;;;5144292;27;20465;-41
2021/10/04 01:28:47;;;;;;;6.60;6.00;;;17.40;99.90;;;;;;5148468;27;20557;-41
2021/10/04 01:31:22;;;;;;;6.00;5.50;;;17.40;99.90;;;;;;5144191;27;20568;-42
2021/10/04 01:33:55;;;;;;;7.80;7.07;;;17.30;99.90;;;;;;5144830;27;20527;-41
2021/10/04 01:36:30;;;;;;;24.60;8.50;;;17.30;99.90;;;;;;5144549;27;20502;-42
2021/10/04 01:39:01;;;;;;;33.77;8.60;;;17.20;99.90;;;;;;5145129;27;20460;-42
2021/10/04 01:41:32;;;;;;;33.93;9.30;;;17.20;99.90;;;;;;5145241;27;20586;-42
2021/10/04 01:44:03;;;;;;;7.30;4.50;;;17.10;99.90;;;;;;5143940;27;20512;-42
2021/10/04 01:46:34;;;;;;;4.43;3.93;;;17.10;99.90;;;;;;5144150;27;20520;-42
2021/10/04 01:49:08;;;;;;;4.90;4.40;;;17.00;99.90;;;;;;5144170;27;20467;-42
2021/10/04 01:51:41;;;;;;;4.03;3.73;;;17.00;99.90;;;;;;5142950;27;20890;-42
2021/10/04 01:54:12;;;;;;;4.10;3.70;;;16.90;99.90;;;;;;5145245;27;20425;-42
2021/10/04 01:56:43;;;;;;;5.27;4.10;;;16.90;99.90;;;;;;5136565;27;20449;-42
2021/10/04 01:59:14;;;;;;;6.63;4.80;;;16.80;99.90;;;;;;5144655;27;20457;-42
2021/10/04 02:01:46;;;;;;;4.37;3.93;;;16.70;99.90;;;;;;5142628;27;20449;-42
2021/10/04 02:04:20;;;;;;;4.07;3.77;;;16.60;99.90;;;;;;5144574;27;20439;-42
2021/10/04 02:06:52;;;;;;;4.17;3.87;;;16.60;99.90;;;;;;5144285;27;20444;-42
2021/10/04 02:09:23;;;;;;;4.13;3.80;;;16.50;99.90;;;;;;5144690;27;20462;-42
2021/10/04 02:11:54;;;;;;;5.80;4.23;;;16.40;99.90;;;;;;5141996;27;20455;-42
2021/10/04 02:14:25;;;;;;;4.00;3.67;;;16.40;99.90;;;;;;5124091;28;20453;-42
2021/10/04 02:16:56;;;;;;;4.33;3.93;;;16.20;99.90;;;;;;5123868;27;20465;-41
2021/10/04 02:19:27;;;;;;;4.00;3.70;;;16.20;99.90;;;;;;5133666;27;20429;-42
2021/10/04 02:22:00;;;;;;;4.43;4.03;;;16.20;99.90;;;;;;5144008;27;20476;-42
2021/10/04 02:24:32;;;;;;;4.53;4.23;;;16.10;99.90;;;;;;5144125;27;20523;-41
2021/10/04 02:27:03;;;;;;;4.90;4.50;;;16.10;99.90;;;;;;5144338;27;20437;-42
2021/10/04 02:29:34;;;;;;;4.50;4.20;;;16.00;99.90;;;;;;5144335;27;20549;-41
2021/10/04 02:32:05;;;;;;;5.03;4.63;;;15.80;99.90;;;;;;5142406;27;20485;-42
2021/10/04 02:34:36;;;;;;;4.87;4.47;;;15.80;99.90;;;;;;5143660;27;20590;-42
2021/10/04 02:37:09;;;;;;;4.60;4.30;;;15.90;99.90;;;;;;5143061;27;20433;-41
2021/10/04 02:39:40;;;;;;;5.20;4.63;;;15.80;99.90;;;;;;5144515;27;20444;-41
2021/10/04 02:42:11;;;;;;;4.60;4.20;;;15.80;99.90;;;;;;5143599;27;20453;-41
2021/10/04 02:44:42;;;;;;;4.23;3.83;;;15.70;99.90;;;;;;5143982;28;20464;-41
2021/10/04 02:47:13;;;;;;;5.30;4.80;;;15.70;99.90;;;;;;5143206;27;20460;-41
2021/10/04 02:49:44;;;;;;;6.00;4.03;;;15.70;99.90;;;;;;5143790;28;20476;-42
2021/10/04 02:52:17;;;;;;;5.50;4.90;;;15.70;99.90;;;;;;5132809;27;20509;-41
2021/10/04 02:54:48;;;;;;;5.10;4.80;;;15.60;99.90;;;;;;5123031;27;20446;-44
2021/10/04 02:57:19;;;;;;;4.87;4.40;;;15.50;99.90;;;;;;5134046;27;20464;-43
2021/10/04 02:59:50;;;;;;;4.80;4.40;;;15.50;99.90;;;;;;5140182;27;20476;-44
2021/10/04 03:02:21;;;;;;;4.87;4.37;;;15.50;99.90;;;;;;5140343;27;20851;-44
2021/10/04 03:04:52;;;;;;;5.97;3.67;;;15.40;99.90;;;;;;5143599;27;20564;-44
2021/10/04 03:07:25;;;;;;;4.80;4.40;;;15.40;99.90;;;;;;5143599;28;20433;-44
2021/10/04 03:09:56;;;;;;;5.83;5.33;;;15.30;99.90;;;;;;5143499;27;20488;-41
2021/10/04 03:12:27;;;;;;;5.10;4.70;;;15.30;99.90;;;;;;5143652;28;20504;-43
2021/10/04 03:14:59;;;;;;;5.60;5.10;;;15.30;99.90;;;;;;5143661;27;20456;-43
2021/10/04 03:17:30;;;;;;;4.93;4.53;;;15.20;99.90;;;;;;5136771;27;20442;-44
2021/10/04 03:20:01;;;;;;;4.10;3.70;;;15.20;99.90;;;;;;5141382;28;20436;-44
2021/10/04 03:22:33;;;;;;;4.13;3.77;;;15.30;99.90;;;;;;5143796;28;20467;-44
2021/10/04 03:25:04;;;;;;;4.33;4.00;;;15.20;99.90;;;;;;5143699;27;20440;-44
2021/10/04 03:27:35;;;;;;;5.20;4.00;;;15.10;99.90;;;;;;5143868;28;20460;-44
2021/10/04 03:30:08;;;;;;;4.57;4.17;;;15.10;99.90;;;;;;5142646;28;20488;-44
2021/10/04 03:32:39;;;;;;;4.97;4.57;;;15.00;99.90;;;;;;5137669;28;20461;-44
2021/10/04 03:35:11;;;;;;;4.97;4.10;;;15.00;99.90;;;;;;5138908;28;20489;-44
2021/10/04 03:37:44;;;;;;;4.57;4.00;;;15.10;99.90;;;;;;5142807;28;20432;-44
2021/10/04 03:40:15;;;;;;;5.07;4.57;;;15.00;99.90;;;;;;5143050;28;20536;-43
2021/10/04 03:42:46;;;;;;;5.40;4.90;;;15.00;99.90;;;;;;5143827;27;20445;-44
2021/10/04 03:45:18;;;;;;;5.40;5.00;;;15.00;99.90;;;;;;5143805;28;20444;-44
2021/10/04 03:47:49;;;;;;;5.30;4.60;;;14.90;99.90;;;;;;5143086;27;20470;-44
2021/10/04 03:50:20;;;;;;;5.40;4.90;;;14.90;99.90;;;;;;5146021;27;20468;-45
2021/10/04 03:52:53;;;;;;;6.03;5.43;;;14.80;99.90;;;;;;5146848;27;20440;-45
2021/10/04 03:55:24;;;;;;;5.27;4.57;;;14.90;99.90;;;;;;5147343;27;20437;-44
2021/10/04 03:57:55;;;;;;;5.03;4.60;;;14.90;99.90;;;;;;5147368;27;20444;-45
2021/10/04 04:00:28;;;;;;;4.70;4.30;;;14.90;99.90;;;;;;5146944;27;20475;-44
2021/10/04 04:02:59;;;;;;;4.80;4.40;;;14.80;99.90;;;;;;5146068;27;20441;-45
2021/10/04 04:05:30;;;;;;;4.53;4.13;;;14.70;99.90;;;;;;5143546;27;20437;-44
2021/10/04 04:08:03;;;;;;;5.07;4.57;;;14.70;99.90;;;;;;5146505;27;20825;-44
2021/10/04 04:10:34;;;;;;;5.60;4.43;;;14.70;99.90;;;;;;5146571;27;20927;-44
2021/10/04 04:13:05;;;;;;;5.30;4.80;;;14.70;99.90;;;;;;5144843;27;20445;-44
2021/10/04 04:15:39;;;;;;;4.13;3.83;;;14.60;99.90;;;;;;5146523;27;20482;-44
2021/10/04 04:18:10;;;;;;;4.40;4.00;;;14.60;99.90;;;;;;5146393;27;20509;-43
2021/10/04 04:20:41;;;;;;;4.50;4.07;;;14.50;99.90;;;;;;5147259;27;20429;-44
2021/10/04 04:23:14;;;;;;;4.00;3.70;;;14.50;99.90;;;;;;5146295;27;20445;-45
2021/10/04 04:25:45;;;;;;;5.23;4.30;;;14.50;99.90;;;;;;5146775;27;20480;-44
2021/10/04 04:28:16;;;;;;;4.27;3.97;;;14.50;99.90;;;;;;5146815;27;20451;-44
2021/10/04 04:30:46;;;;;;;4.67;4.27;;;14.40;99.90;;;;;;5146270;27;20508;-44
2021/10/04 04:33:20;;;;;;;4.53;4.23;;;14.40;99.90;;;;;;5145839;27;20452;-44
2021/10/04 04:35:51;;;;;;;4.63;4.27;;;14.30;99.90;;;;;;5146712;27;20443;-45
2021/10/04 04:38:23;;;;;;;4.70;4.30;;;14.30;99.90;;;;;;5145550;27;20480;-43
2021/10/04 04:40:54;;;;;;;4.70;4.30;;;14.30;99.90;;;;;;5146421;27;20527;-43
2021/10/04 04:43:25;;;;;;;4.70;3.67;;;14.30;99.90;;;;;;5146253;27;20445;-43
2021/10/04 04:45:56;;;;;;;6.13;4.13;;;14.30;99.90;;;;;;5146223;27;20468;-43
2021/10/04 04:48:28;;;;;;;4.30;3.80;;;14.20;99.90;;;;;;5145887;27;20428;-45
2021/10/04 04:50:59;;;;;;;5.23;4.40;;;14.20;99.90;;;;;;5146320;27;20477;-45
2021/10/04 04:53:32;;;;;;;4.60;4.20;;;14.20;99.90;;;;;;5145693;27;20449;-45
2021/10/04 04:56:03;;;;;;;3.80;3.43;;;14.20;99.90;;;;;;5145769;27;20973;-45
2021/10/04 04:58:36;;;;;;;5.43;3.73;;;14.20;99.90;;;;;;5146494;27;20448;-44
2021/10/04 05:01:07;;;;;;;6.87;4.10;;;14.20;99.90;;;;;;5144803;27;20870;-45
2021/10/04 05:03:44;;;;;;;4.60;4.23;;;14.20;99.90;;;;;;5144369;27;20445;-45
2021/10/04 05:06:16;;;;;;;4.97;3.87;;;14.10;99.90;;;;;;5137304;27;20543;-45
2021/10/04 05:08:48;;;;;;;3.77;3.47;;;14.10;99.90;;;;;;5145401;27;20505;-45
2021/10/04 05:11:19;;;;;;;4.23;3.17;;;14.10;99.90;;;;;;5145750;27;20600;-44
2021/10/04 05:13:50;;;;;;;4.93;4.27;;;14.10;99.90;;;;;;5145289;27;20445;-45
2021/10/04 05:16:21;;;;;;;6.13;3.63;;;14.10;99.90;;;;;;5145119;27;20445;-44
2021/10/04 05:18:52;;;;;;;4.43;4.03;;;14.10;99.90;;;;;;5145416;27;20437;-44
2021/10/04 05:21:23;;;;;;;4.77;4.37;;;14.10;99.90;;;;;;5145743;27;20436;-45
2021/10/04 05:23:56;;;;;;;5.03;4.53;;;14.00;99.90;;;;;;5144969;27;20945;-44
2021/10/04 05:26:28;;;;;;;4.67;4.17;;;14.00;99.90;;;;;;5134596;27;20488;-45
2021/10/04 05:28:59;;;;;;;5.10;4.70;;;13.90;99.90;;;;;;5145872;27;20448;-45
2021/10/04 05:31:30;;;;;;;5.60;4.30;;;13.80;99.90;;;;;;5144449;27;20605;-45
2021/10/04 05:34:02;;;;;;;5.33;3.87;;;13.80;99.90;;;;;;5144341;27;20445;-45
2021/10/04 05:36:33;;;;;;;5.27;4.30;;;13.80;99.90;;;;;;5144274;27;20445;-45
2021/10/04 05:39:06;;;;;;;6.60;3.53;;;13.80;99.90;;;;;;5144768;27;20452;-45
2021/10/04 05:41:39;;;;;;;4.53;4.10;;;13.80;99.90;;;;;;5144848;27;20457;-45
2021/10/04 05:44:10;;;;;;;5.50;4.30;;;13.70;99.90;;;;;;5144396;27;20476;-44
2021/10/04 05:46:41;;;;;;;9.27;4.67;;;13.80;99.90;;;;;;5144052;27;20469;-45
2021/10/04 05:49:12;;;;;;;5.10;4.20;;;13.80;99.90;;;;;;5144863;27;20484;-44
2021/10/04 05:51:43;;;;;;;4.40;4.00;;;13.70;99.90;;;;;;5145063;27;20500;-45
2021/10/04 05:54:16;;;;;;;5.47;3.83;;;13.70;99.90;;;;;;5144208;27;20465;-45
2021/10/04 05:56:47;;;;;;;5.33;3.30;;;13.60;99.90;;;;;;5144969;27;20436;-45
2021/10/04 05:59:18;;;;;;;5.03;3.57;;;13.60;99.90;;;;;;5144990;27;20492;-45
2021/10/04 06:01:49;;;;;;;5.00;2.80;;;13.60;99.90;;;;;;5143320;27;20453;-45
2021/10/04 06:04:20;;;;;;;5.40;3.50;;;13.50;99.90;;;;;;5143997;27;20765;-44
2021/10/04 06:06:51;;;;;;;6.17;4.07;;;13.50;99.90;;;;;;5142807;27;20473;-44
2021/10/04 06:09:24;;;;;;;5.43;3.07;;;13.40;99.90;;;;;;5143723;27;20441;-45
2021/10/04 06:11:59;;;;;;;6.00;3.70;;;13.40;99.90;;;;;;5144094;27;20523;-45
2021/10/04 06:14:30;;;;;;;5.80;3.17;;;13.40;99.90;;;;;;5144554;27;20452;-45
2021/10/04 06:17:01;;;;;;;7.37;3.43;;;13.40;99.90;;;;;;5143766;27;20480;-45
2021/10/04 06:19:32;;;;;;;5.10;3.10;;;13.40;99.90;;;;;;5144161;27;20465;-45
2021/10/04 06:22:03;;;;;;;4.80;2.97;;;13.30;99.90;;;;;;5144725;27;20473;-45
2021/10/04 06:24:36;;;;;;;5.03;3.20;;;13.40;99.90;;;;;;5143965;27;20864;-45
2021/10/04 06:27:10;;;;;;;5.03;3.80;;;13.30;99.90;;;;;;5144680;27;20467;-45
2021/10/04 06:29:42;;;;;;;4.73;2.90;;;13.30;99.90;;;;;;5144611;27;20520;-45
2021/10/04 06:32:13;;;;;;;9.90;4.20;;;13.30;99.90;;;;;;5143663;27;20481;-45
2021/10/04 06:34:44;;;;;;;9.13;3.60;;;13.30;99.90;;;;;;5144179;27;20455;-44
2021/10/04 06:37:14;;;;;;;4.83;3.70;;;13.40;99.90;;;;;;5143151;27;20468;-45
2021/10/04 06:39:47;;;;;;;8.47;4.20;;;13.40;99.90;;;;;;5143771;27;20456;-44
2021/10/04 06:42:21;;;;;;;5.53;4.10;;;13.50;99.90;;;;;;5144060;28;20445;-45
2021/10/04 06:44:53;;;;;;;7.13;4.50;;;13.50;99.90;;;;;;5144371;27;20816;-45
2021/10/04 06:47:25;;;;;;;5.03;3.20;;;13.50;99.90;;;;;;5143245;27;20440;-45
2021/10/04 06:49:56;;;;;;;10.07;4.03;;;13.40;99.90;;;;;;5124007;28;20457;-45
2021/10/04 06:52:27;;;;;;;6.87;4.27;;;13.40;99.90;;;;;;5124725;28;20500;-45
2021/10/04 06:55:00;;;;;;;8.23;3.60;;;13.50;99.90;;;;;;5143880;28;20468;-44
2021/10/04 06:57:36;;;;;;;5.03;4.53;;;13.60;99.90;;;;;;5144237;27;20432;-45
2021/10/04 07:00:09;;;;;;;5.30;3.60;;;13.60;99.90;;;;;;5144401;27;20533;-44
2021/10/04 07:02:41;;;;;;;7.87;4.33;;;13.60;99.90;;;;;;5143189;27;20440;-44
2021/10/04 07:05:12;;;;;;;9.40;3.67;;;13.60;99.90;;;;;;5143100;28;20444;-45
2021/10/04 07:07:44;;;;;;;5.63;4.17;;;13.60;99.90;;;;;;5144090;27;20469;-45
2021/10/04 07:10:16;;;;;;;7.17;4.00;;;13.60;99.90;;;;;;5143713;27;20489;-44
2021/10/04 07:12:47;;;;;;;6.60;3.87;;;13.60;99.90;;;;;;5134234;28;20492;-45
2021/10/04 07:15:18;;;;;;;6.20;4.20;;;13.60;99.90;;;;;;5127361;28;20453;-45
2021/10/04 07:17:49;;;;;;;5.10;3.60;;;13.60;99.90;;;;;;5143595;27;20491;-44
2021/10/04 07:20:20;;;;;;;5.70;3.90;;;13.60;99.90;;;;;;5143887;28;20436;-45
2021/10/04 07:22:51;;;;;;;6.67;4.40;;;13.60;99.90;;;;;;5144235;27;20459;-46
2021/10/04 07:25:24;;;;;;;4.83;3.30;;;13.60;99.90;;;;;;5146391;27;20507;-44
2021/10/04 07:27:55;;;;;;;5.37;3.90;;;13.60;99.90;;;;;;5148062;27;20445;-44
2021/10/04 07:30:26;;;;;;;7.00;3.50;;;13.60;99.90;;;;;;5147778;27;20480;-44
2021/10/04 07:32:58;;;;;;;6.93;4.20;;;13.60;99.90;;;;;;5147075;27;20483;-44
2021/10/04 07:35:29;;;;;;;4.97;4.00;;;13.60;99.90;;;;;;5147471;27;20951;-44
2021/10/04 07:38:00;;;;;;;4.67;3.53;;;13.60;99.90;;;;;;5147457;27;20491;-45
2021/10/04 07:40:33;;;;;;;7.30;3.90;;;13.60;99.90;;;;;;5146772;27;20452;-45
2021/10/04 07:43:04;;;;;;;4.90;3.73;;;13.50;99.90;;;;;;5147006;27;20483;-46
2021/10/04 07:45:35;;;;;;;4.03;3.63;;;13.60;99.90;;;;;;5147144;27;20471;-45
2021/10/04 07:48:07;;;;;;;9.47;4.20;;;13.60;99.90;;;;;;5146316;27;20444;-45
2021/10/04 07:50:44;;;;;;;6.13;3.70;;;13.60;99.90;;;;;;5147543;27;20487;-46
2021/10/04 07:53:15;;;;;;;8.70;3.97;;;13.50;99.90;;;;;;5147236;27;20444;-45
2021/10/04 07:55:47;;;;;;;7.40;4.30;;;13.60;99.90;;;;;;5146146;27;20961;-45
2021/10/04 07:58:20;;;;;;;8.00;4.47;;;13.60;99.90;;;;;;5147115;27;20474;-44
2021/10/04 08:00:52;;;;;;;4.47;4.03;;;13.50;99.90;;;;;;5146452;27;20473;-45
2021/10/04 08:03:25;;;;;;;4.80;4.30;;;13.50;99.90;;;;;;5146777;27;20503;-46
2021/10/04 08:05:56;;;;;;;6.97;4.50;;;13.40;99.90;;;;;;5146240;27;20441;-46
2021/10/04 08:08:27;;;;;;;7.40;3.90;;;13.40;99.90;;;;;;5146354;27;20476;-46
2021/10/04 08:11:00;;;;;;;4.60;3.80;;;13.40;99.90;;;;;;5145905;27;21001;-45
2021/10/04 08:13:33;;;;;;;5.90;4.30;;;13.40;99.90;;;;;;5146576;27;20466;-45
2021/10/04 08:16:05;;;;;;;6.07;4.03;;;13.40;99.90;;;;;;5145661;27;20459;-45
2021/10/04 08:18:39;;;;;;;4.00;3.60;;;13.30;99.90;;;;;;5146003;27;20429;-45
2021/10/04 08:21:11;;;;;;;5.50;4.00;;;13.30;99.90;;;;;;5146703;27;20449;-45
2021/10/04 08:23:42;;;;;;;7.20;4.53;;;13.30;99.90;;;;;;5147056;27;20475;-45
2021/10/04 08:26:15;;;;;;;4.47;4.07;;;13.20;99.90;;;;;;5145576;27;20464;-45
2021/10/04 08:28:46;;;;;;;7.00;4.90;;;13.20;99.90;;;;;;5146674;27;20444;-45
2021/10/04 08:31:18;;;;;;;6.20;3.70;;;13.20;99.90;;;;;;5145150;27;20445;-45
2021/10/04 08:33:52;;;;;;;5.30;4.50;;;13.20;99.90;;;;;;5146465;27;20456;-45
2021/10/04 08:36:23;;;;;;;6.03;4.40;;;13.20;99.90;;;;;;5144492;27;20441;-45
2021/10/04 08:38:54;;;;;;;5.17;4.00;;;13.00;99.90;;;;;;5146216;27;20529;-45
2021/10/04 08:41:26;;;;;;;6.83;4.07;;;13.00;99.90;;;;;;5145586;27;20469;-45
2021/10/04 08:43:57;;;;;;;7.57;4.77;;;12.90;99.90;;;;;;5145897;27;20483;-45
2021/10/04 08:46:28;;;;;;;6.97;4.43;;;12.90;99.90;;;;;;5145177;27;20476;-45
2021/10/04 08:49:00;;;;;;;9.10;4.93;;;12.80;99.90;;;;;;5145906;27;20429;-45
2021/10/04 08:51:34;;;;;;;5.57;4.97;;;12.80;99.90;;;;;;5146025;27;20763;-45
2021/10/04 08:54:07;;;;;;;6.63;4.53;;;12.80;99.90;;;;;;5145892;27;20449;-45
2021/10/04 08:56:40;;;;;;;5.37;4.67;;;12.70;99.90;;;;;;5145060;27;20448;-45
2021/10/04 08:59:14;;;;;;;7.00;5.10;;;12.70;99.90;;;;;;5146096;27;20564;-45
2021/10/04 09:01:45;;;;;;;5.30;4.67;;;12.70;99.90;;;;;;5145118;27;20457;-45
2021/10/04 09:04:24;;;;;;;6.87;4.60;;;12.60;99.90;;;;;;5145042;27;20440;-45
2021/10/04 09:06:57;;;;;;;8.30;5.37;;;12.60;99.90;;;;;;5138086;27;20451;-45
2021/10/04 09:09:27;;;;;;;7.20;4.83;;;12.50;99.90;;;;;;5144813;27;20444;-45
2021/10/04 09:12:21;;;;;;;10.37;5.70;;;12.50;99.90;;;;;;5140010;27;20493;-45
2021/10/04 09:14:52;;;;;;;6.87;5.07;;;12.50;99.90;;;;;;5125343;28;20453;-45
2021/10/04 09:17:23;;;;;;;6.30;4.70;;;12.50;99.90;;;;;;5139082;27;20456;-45
2021/10/04 09:19:55;;;;;;;7.17;5.00;;;12.40;99.90;;;;;;5145515;27;20444;-45
2021/10/04 09:22:33;;;;;;;5.57;4.67;;;12.40;99.90;;;;;;5144937;27;20440;-44
2021/10/04 09:25:07;;;;;;;13.00;5.80;;;12.40;99.90;;;;;;5132208;27;20464;-45
2021/10/04 09:27:43;;;;;;;7.70;5.10;;;12.40;99.90;;;;;;5145029;27;20472;-44
2021/10/04 09:30:24;;;;;;;12.20;5.50;;;12.30;99.90;;;;;;5145198;27;20437;-45
2021/10/04 09:33:01;;;;;;;6.87;5.60;;;12.30;99.90;;;;;;5144360;27;20565;-45
2021/10/04 09:35:34;;;;;;;8.40;5.77;;;12.30;99.90;;;;;;5144591;27;20476;-44
2021/10/04 09:38:18;;;;;;;6.37;5.73;;;12.30;99.90;;;;;;5143869;27;20463;-45
2021/10/04 09:40:51;;;;;;;8.00;5.93;;;12.30;99.90;;;;;;5144152;27;20989;-45
2021/10/04 09:43:28;;;;;;;10.10;6.03;;;12.30;99.90;;;;;;5145019;27;20476;-45
2021/10/04 09:46:01;;;;;;;7.87;5.40;;;12.20;99.90;;;;;;5144526;27;20432;-44
2021/10/04 09:48:33;;;;;;;6.60;6.00;;;12.20;99.90;;;;;;5144016;27;20517;-45
2021/10/04 09:51:15;;;;;;;9.37;6.80;;;12.30;99.90;;;;;;5144010;27;20441;-45
2021/10/04 09:54:09;;;;;;;6.83;6.13;;;12.30;99.90;;;;;;5144013;27;20480;-45
2021/10/04 09:56:40;;;;;;;7.10;6.40;;;12.30;99.90;;;;;;5130811;27;20449;-44
2021/10/04 09:59:32;;;;;;;10.40;6.53;;;12.30;99.90;;;;;;5144472;27;20448;-44
2021/10/04 10:02:07;;;;;;;10.63;6.70;;;12.40;99.90;;;;;;5143867;27;20943;-45
2021/10/04 10:04:39;;;;;;;9.83;6.40;;;12.50;99.90;;;;;;5144779;27;20440;-44
2021/10/04 10:07:10;;;;;;;7.50;6.73;;;12.50;99.90;;;;;;5135775;27;20599;-44
2021/10/04 10:09:45;;;;;;;10.07;7.40;;;12.50;99.90;;;;;;5143775;27;20480;-45
2021/10/04 10:12:16;;;;;;;8.07;7.13;;;12.60;99.90;;;;;;5144005;27;20441;-45
2021/10/04 10:14:51;;;;;;;7.77;6.43;;;12.60;99.90;;;;;;5144392;27;20540;-44
2021/10/04 10:17:25;;;;;;;9.03;7.00;;;12.70;99.90;;;;;;5142975;27;20563;-45
2021/10/04 10:19:58;;;;;;;10.10;7.70;;;12.70;99.90;;;;;;5144644;27;20449;-44
2021/10/04 10:22:32;;;;;;;7.77;6.97;;;12.80;99.90;;;;;;5143512;27;20461;-44
2021/10/04 10:25:03;;;;;;;9.03;7.00;;;12.90;99.90;;;;;;5144327;27;20444;-44
2021/10/04 10:27:42;;;;;;;9.20;7.07;;;13.00;99.90;;;;;;5143898;27;20776;-45
2021/10/04 10:30:23;;;;;;;8.67;6.53;;;13.00;99.90;;;;;;5123671;28;20441;-44
2021/10/04 10:32:56;;;;;;;9.13;6.70;;;13.00;99.90;;;;;;5135738;27;20975;-45
2021/10/04 10:35:49;;;;;;;8.63;7.70;;;13.10;99.90;;;;;;5143968;27;20423;-45
2021/10/04 10:39:03;;;;;;;9.83;7.50;;;13.10;99.90;;;;;;5142997;27;20441;-45
2021/10/04 10:41:35;;;;;;;8.07;7.27;;;13.20;99.90;;;;;;5143815;27;20456;-44
2021/10/04 10:44:12;;;;;;;10.00;7.97;;;13.20;99.90;;;;;;5144726;27;20511;-45
2021/10/04 10:46:54;;;;;;;12.20;7.37;;;13.20;99.90;;;;;;5143115;27;20830;-45
2021/10/04 10:50:01;;;;;;;10.37;8.37;;;13.20;99.90;;;;;;5143710;27;20508;-44
2021/10/04 10:52:34;;;;;;;9.00;8.10;;;13.30;99.90;;;;;;5142354;28;20463;-45
2021/10/04 10:55:32;;;;;;;10.00;8.17;;;13.30;99.90;;;;;;5144288;27;20482;-45
2021/10/04 10:58:09;;;;;;;11.80;10.13;;;13.30;99.90;;;;;;5143948;27;20465;-45
2021/10/04 11:00:48;;;;;;;10.53;9.37;;;13.30;99.90;;;;;;5147700;27;20476;-44
2021/10/04 11:03:22;;;;;;;11.23;9.90;;;13.30;99.90;;;;;;5147766;27;20591;-45
2021/10/04 11:06:04;;;;;;;13.10;9.63;;;13.30;99.90;;;;;;5147969;27;20459;-45
2021/10/04 11:09:01;;;;;;;12.10;10.90;;;13.40;99.90;;;;;;5147352;27;20440;-44
2021/10/04 11:11:34;;;;;;;12.60;10.63;;;13.30;99.90;;;;;;5148219;27;20437;-44
2021/10/04 11:14:19;;;;;;;15.70;10.87;;;13.30;99.90;;;;;;5148208;27;20492;-44
2021/10/04 11:17:02;;;;;;;11.93;9.47;;;13.30;99.90;;;;;;5145957;27;20453;-45
2021/10/04 11:19:38;;;;;;;12.70;10.40;;;13.30;99.90;;;;;;5147099;27;20501;-44
2021/10/04 11:22:23;;;;;;;12.00;10.33;;;13.40;99.90;;;;;;5147598;27;20559;-45
2021/10/04 11:25:02;;;;;;;12.27;10.90;;;13.40;99.90;;;;;;5147352;27;20475;-44
2021/10/04 11:27:33;;;;;;;11.43;10.10;;;13.50;99.90;;;;;;5147593;27;20476;-45
2021/10/04 11:30:09;;;;;;;14.30;9.60;;;13.40;99.90;;;;;;5147551;27;20468;-44
2021/10/04 11:32:40;;;;;;;12.93;9.97;;;13.40;99.90;;;;;;5147040;27;20463;-44
2021/10/04 11:35:18;;;;;;;11.70;8.90;;;13.40;99.90;;;;;;5147607;27;20933;-44
2021/10/04 11:37:49;;;;;;;12.07;8.60;;;13.40;99.90;;;;;;5147507;27;20488;-45
2021/10/04 11:40:20;;;;;;;15.37;10.10;;;13.40;99.90;;;;;;5146555;27;20471;-45
2021/10/04 11:42:51;;;;;;;11.50;9.60;;;13.40;99.90;;;;;;5146798;27;20465;-45
2021/10/04 11:45:26;;;;;;;12.03;9.87;;;13.40;99.90;;;;;;5147236;27;20492;-44
2021/10/04 11:47:57;;;;;;;10.20;9.17;;;13.50;99.90;;;;;;5146711;27;20444;-45
2021/10/04 11:50:31;;;;;;;13.90;10.53;;;13.50;99.90;;;;;;5147327;27;20477;-45
2021/10/04 11:53:03;;;;;;;12.87;10.37;;;13.40;99.90;;;;;;5147301;27;20459;-44
2021/10/04 11:55:34;;;;;;;12.23;11.00;;;13.50;99.90;;;;;;5146698;27;20453;-45
2021/10/04 11:58:15;;;;;;;12.40;10.20;;;13.50;99.90;;;;;;5146806;27;20449;-44
2021/10/04 12:00:47;;;;;;;15.80;10.30;;;13.50;99.90;;;;;;5146428;27;20472;-45
2021/10/04 12:03:26;;;;;;;11.47;10.27;;;13.50;99.90;;;;;;5147047;27;20459;-45
2021/10/04 12:06:01;;;;;;;11.50;9.70;;;13.50;99.90;;;;;;5146933;27;20444;-45
2021/10/04 12:08:39;;;;;;;10.70;9.60;;;13.40;99.90;;;;;;5146627;27;20784;-44
2021/10/04 12:11:15;;;;;;;13.00;10.50;;;13.50;99.90;;;;;;5146021;27;20459;-44
2021/10/04 12:13:47;;;;;;;16.57;10.90;;;13.50;99.90;;;;;;5141809;27;20536;-45
2021/10/04 12:16:19;;;;;;;11.70;10.00;;;13.40;99.90;;;;;;5146110;27;20861;-45
2021/10/04 12:18:51;;;;;;;12.17;9.33;;;13.50;99.90;;;;;;5146330;27;20467;-46
2021/10/04 12:21:27;;;;;;;14.90;10.13;;;13.60;99.90;;;;;;5146732;27;20469;-46
2021/10/04 12:24:15;;;;;;;15.03;10.27;;;13.60;99.90;;;;;;5146678;27;20976;-43
2021/10/04 12:26:58;;;;;;;11.00;9.70;;;13.60;99.90;;;;;;5146414;27;20448;-45
2021/10/04 12:29:34;;;;;;;14.70;10.90;;;13.50;99.90;;;;;;5145991;27;20498;-46
2021/10/04 12:32:23;;;;;;;13.37;9.80;;;13.40;99.90;;;;;;5145428;27;20476;-44
2021/10/04 12:35:03;;;;;;;13.47;10.83;;;13.50;99.90;;;;;;5146348;27;20508;-45
2021/10/04 12:37:38;;;;;;;11.70;10.30;;;13.50;99.90;;;;;;5146419;27;20475;-44
2021/10/04 12:40:20;;;;;;;14.87;9.40;;;13.50;99.90;;;;;;5145292;27;20440;-44
2021/10/04 12:42:52;;;;;;;13.90;10.53;;;13.50;99.90;;;;;;5146768;27;20534;-44
2021/10/04 12:45:23;;;;;;;13.53;10.10;;;13.40;99.90;;;;;;5145833;27;20460;-44
2021/10/04 12:48:05;;;;;;;13.27;10.40;;;13.40;99.90;;;;;;5145994;27;20451;-44
2021/10/04 12:50:39;;;;;;;14.00;10.57;;;13.40;99.90;;;;;;5145794;27;20459;-46
2021/10/04 12:53:16;;;;;;;13.43;10.00;;;13.50;99.90;;;;;;5146398;27;20480;-44
2021/10/04 12:55:54;;;;;;;11.70;10.50;;;13.50;99.90;;;;;;5145357;27;20568;-46
2021/10/04 12:58:27;;;;;;;11.97;10.10;;;13.50;99.90;;;;;;5146284;27;20479;-44
2021/10/04 13:01:10;;;;;;;11.90;9.53;;;13.50;99.90;;;;;;5145253;27;20504;-46
2021/10/04 13:03:53;;;;;;;14.73;9.87;;;13.50;99.90;;;;;;5145968;27;20547;-45
2021/10/04 13:06:29;;;;;;;10.73;9.50;;;13.50;99.90;;;;;;5145353;27;20441;-45
2021/10/04 13:09:03;;;;;;;12.20;9.23;;;13.60;99.90;;;;;;5145682;27;21825;-45
2021/10/04 13:11:34;;;;;;;13.20;10.40;;;13.50;99.90;;;;;;5144639;27;20472;-45
2021/10/04 13:14:07;;;;;;;12.43;11.00;;;13.50;99.90;;;;;;5144149;27;20476;-44